sensor_id;sensor_type;location;lat;lon;timestamp;P1;durP1;ratioP1;P2;durP2;ratioP2
5951;SDS011;3001;42.622;23.194;2023-08-21T00:02:23;5.40;;;5.00;;
5951;SDS011;3001;42.622;23.194;2023-08-21T00:04:50;5.40;;;5.10;;
5951;SDS011;3001;42.622;23.194;2023-08-21T00:07:17;5.87;;;5.00;;
5951;SDS011;3001;42.622;23.194;2023-08-21T00:09:44;5.50;;;5.20;;
5951;SDS011;3001;42.622;23.194;2023-08-21T00:12:10;8.27;;;4.50;;
5951;SDS011;3001;42.622;23.194;2023-08-21T00:14:37;5.37;;;5.07;;
5951;SDS011;3001;42.622;23.194;2023-08-21T00:17:04;5.20;;;4.80;;
5951;SDS011;3001;42.622;23.194;2023-08-21T00:19:32;4.83;;;4.53;;
5951;SDS011;3001;42.622;23.194;2023-08-21T00:21:59;4.90;;;4.63;;
5951;SDS011;3001;42.622;23.194;2023-08-21T00:24:26;5.00;;;4.70;;
5951;SDS011;3001;42.622;23.194;2023-08-21T00:26:52;4.77;;;4.47;;
5951;SDS011;3001;42.622;23.194;2023-08-21T00:29:19;5.30;;;4.90;;
5951;SDS011;3001;42.622;23.194;2023-08-21T00:31:46;5.23;;;4.93;;
5951;SDS011;3001;42.622;23.194;2023-08-21T00:34:12;5.00;;;4.70;;
5951;SDS011;3001;42.622;23.194;2023-08-21T00:36:40;5.40;;;5.03;;
5951;SDS011;3001;42.622;23.194;2023-08-21T00:39:07;5.80;;;4.80;;
5951;SDS011;3001;42.622;23.194;2023-08-21T00:41:34;6.23;;;5.70;;
5951;SDS011;3001;42.622;23.194;2023-08-21T00:44:00;5.67;;;5.43;;
5951;SDS011;3001;42.622;23.194;2023-08-21T00:46:27;5.77;;;5.27;;
5951;SDS011;3001;42.622;23.194;2023-08-21T00:48:54;7.63;;;5.17;;
5951;SDS011;3001;42.622;23.194;2023-08-21T00:51:20;5.80;;;5.33;;
5951;SDS011;3001;42.622;23.194;2023-08-21T00:53:49;5.80;;;5.50;;
5951;SDS011;3001;42.622;23.194;2023-08-21T00:56:15;5.53;;;5.27;;
5951;SDS011;3001;42.622;23.194;2023-08-21T00:58:42;5.73;;;5.47;;
5951;SDS011;3001;42.622;23.194;2023-08-21T01:01:09;6.27;;;5.63;;
5951;SDS011;3001;42.622;23.194;2023-08-21T01:03:37;5.23;;;5.00;;
5951;SDS011;3001;42.622;23.194;2023-08-21T01:06:04;5.67;;;5.27;;
5951;SDS011;3001;42.622;23.194;2023-08-21T01:08:34;5.67;;;5.17;;
5951;SDS011;3001;42.622;23.194;2023-08-21T01:11:10;7.67;;;5.57;;
5951;SDS011;3001;42.622;23.194;2023-08-21T01:13:45;5.47;;;5.17;;
5951;SDS011;3001;42.622;23.194;2023-08-21T01:16:17;5.63;;;5.33;;
5951;SDS011;3001;42.622;23.194;2023-08-21T01:18:46;5.67;;;5.37;;
5951;SDS011;3001;42.622;23.194;2023-08-21T01:21:14;6.10;;;5.70;;
5951;SDS011;3001;42.622;23.194;2023-08-21T01:23:43;6.17;;;5.87;;
5951;SDS011;3001;42.622;23.194;2023-08-21T01:26:09;6.03;;;5.63;;
5951;SDS011;3001;42.622;23.194;2023-08-21T01:28:36;6.10;;;5.80;;
5951;SDS011;3001;42.622;23.194;2023-08-21T01:31:05;6.27;;;5.97;;
5951;SDS011;3001;42.622;23.194;2023-08-21T01:33:40;6.10;;;5.60;;
5951;SDS011;3001;42.622;23.194;2023-08-21T01:36:12;5.93;;;5.53;;
5951;SDS011;3001;42.622;23.194;2023-08-21T01:38:40;5.97;;;5.67;;
5951;SDS011;3001;42.622;23.194;2023-08-21T01:41:09;6.43;;;6.00;;
5951;SDS011;3001;42.622;23.194;2023-08-21T01:43:36;9.63;;;5.53;;
5951;SDS011;3001;42.622;23.194;2023-08-21T01:46:02;5.40;;;5.17;;
5951;SDS011;3001;42.622;23.194;2023-08-21T01:48:29;6.93;;;6.13;;
5951;SDS011;3001;42.622;23.194;2023-08-21T01:50:56;6.00;;;5.70;;
5951;SDS011;3001;42.622;23.194;2023-08-21T01:53:22;6.27;;;5.87;;
5951;SDS011;3001;42.622;23.194;2023-08-21T01:55:51;6.10;;;5.73;;
5951;SDS011;3001;42.622;23.194;2023-08-21T01:58:17;6.43;;;6.03;;
5951;SDS011;3001;42.622;23.194;2023-08-21T02:00:45;6.00;;;5.60;;
5951;SDS011;3001;42.622;23.194;2023-08-21T02:03:12;6.70;;;6.13;;
5951;SDS011;3001;42.622;23.194;2023-08-21T02:05:39;5.90;;;5.57;;
5951;SDS011;3001;42.622;23.194;2023-08-21T02:08:06;6.20;;;5.70;;
5951;SDS011;3001;42.622;23.194;2023-08-21T02:10:35;6.10;;;5.57;;
5951;SDS011;3001;42.622;23.194;2023-08-21T02:13:03;6.40;;;6.00;;
5951;SDS011;3001;42.622;23.194;2023-08-21T02:15:30;6.17;;;5.77;;
5951;SDS011;3001;42.622;23.194;2023-08-21T02:17:57;5.83;;;5.33;;
5951;SDS011;3001;42.622;23.194;2023-08-21T02:20:24;6.27;;;5.97;;
5951;SDS011;3001;42.622;23.194;2023-08-21T02:22:51;6.67;;;6.17;;
5951;SDS011;3001;42.622;23.194;2023-08-21T02:25:17;6.03;;;5.60;;
5951;SDS011;3001;42.622;23.194;2023-08-21T02:27:44;5.97;;;5.67;;
5951;SDS011;3001;42.622;23.194;2023-08-21T02:30:12;7.00;;;6.50;;
5951;SDS011;3001;42.622;23.194;2023-08-21T02:32:39;6.30;;;5.97;;
5951;SDS011;3001;42.622;23.194;2023-08-21T02:35:06;6.57;;;6.27;;
5951;SDS011;3001;42.622;23.194;2023-08-21T02:37:34;6.17;;;5.87;;
5951;SDS011;3001;42.622;23.194;2023-08-21T02:40:04;6.20;;;5.80;;
5951;SDS011;3001;42.622;23.194;2023-08-21T02:42:33;7.30;;;6.60;;
5951;SDS011;3001;42.622;23.194;2023-08-21T02:45:00;6.37;;;5.97;;
5951;SDS011;3001;42.622;23.194;2023-08-21T02:47:30;6.70;;;6.20;;
5951;SDS011;3001;42.622;23.194;2023-08-21T02:49:57;6.07;;;5.70;;
5951;SDS011;3001;42.622;23.194;2023-08-21T02:52:24;6.73;;;6.23;;
5951;SDS011;3001;42.622;23.194;2023-08-21T02:54:51;6.30;;;6.00;;
5951;SDS011;3001;42.622;23.194;2023-08-21T02:57:17;6.80;;;6.30;;
5951;SDS011;3001;42.622;23.194;2023-08-21T02:59:44;6.30;;;5.80;;
5951;SDS011;3001;42.622;23.194;2023-08-21T03:02:11;6.97;;;6.40;;
5951;SDS011;3001;42.622;23.194;2023-08-21T03:04:39;6.23;;;5.70;;
5951;SDS011;3001;42.622;23.194;2023-08-21T03:07:05;6.03;;;5.73;;
5951;SDS011;3001;42.622;23.194;2023-08-21T03:09:32;6.40;;;6.07;;
5951;SDS011;3001;42.622;23.194;2023-08-21T03:11:59;6.90;;;5.90;;
5951;SDS011;3001;42.622;23.194;2023-08-21T03:14:26;6.20;;;5.70;;
5951;SDS011;3001;42.622;23.194;2023-08-21T03:16:53;6.50;;;6.10;;
5951;SDS011;3001;42.622;23.194;2023-08-21T03:19:19;6.67;;;6.17;;
5951;SDS011;3001;42.622;23.194;2023-08-21T03:21:48;6.50;;;6.10;;
5951;SDS011;3001;42.622;23.194;2023-08-21T03:24:15;6.27;;;5.93;;
5951;SDS011;3001;42.622;23.194;2023-08-21T03:26:41;6.13;;;5.70;;
5951;SDS011;3001;42.622;23.194;2023-08-21T03:29:08;6.60;;;6.17;;
5951;SDS011;3001;42.622;23.194;2023-08-21T03:31:35;6.33;;;5.30;;
5951;SDS011;3001;42.622;23.194;2023-08-21T03:34:01;5.27;;;4.97;;
5951;SDS011;3001;42.622;23.194;2023-08-21T03:36:28;5.97;;;5.57;;
5951;SDS011;3001;42.622;23.194;2023-08-21T03:38:58;5.23;;;4.87;;
5951;SDS011;3001;42.622;23.194;2023-08-21T03:41:25;6.27;;;5.63;;
5951;SDS011;3001;42.622;23.194;2023-08-21T03:43:52;6.10;;;5.70;;
5951;SDS011;3001;42.622;23.194;2023-08-21T03:46:19;5.60;;;5.30;;
5951;SDS011;3001;42.622;23.194;2023-08-21T03:48:46;5.10;;;4.87;;
5951;SDS011;3001;42.622;23.194;2023-08-21T03:51:12;5.80;;;5.50;;
5951;SDS011;3001;42.622;23.194;2023-08-21T03:53:39;5.90;;;5.50;;
5951;SDS011;3001;42.622;23.194;2023-08-21T03:56:07;5.80;;;5.40;;
5951;SDS011;3001;42.622;23.194;2023-08-21T03:58:34;5.47;;;5.17;;
5951;SDS011;3001;42.622;23.194;2023-08-21T04:01:01;5.13;;;4.93;;
5951;SDS011;3001;42.622;23.194;2023-08-21T04:03:27;5.50;;;5.00;;
5951;SDS011;3001;42.622;23.194;2023-08-21T04:05:54;24.27;;;7.47;;
5951;SDS011;3001;42.622;23.194;2023-08-21T04:08:21;5.87;;;5.47;;
5951;SDS011;3001;42.622;23.194;2023-08-21T04:10:48;5.60;;;5.20;;
5951;SDS011;3001;42.622;23.194;2023-08-21T04:13:16;5.70;;;5.30;;
5951;SDS011;3001;42.622;23.194;2023-08-21T04:15:44;5.83;;;5.00;;
5951;SDS011;3001;42.622;23.194;2023-08-21T04:18:11;6.73;;;5.33;;
5951;SDS011;3001;42.622;23.194;2023-08-21T04:20:38;6.00;;;5.30;;
5951;SDS011;3001;42.622;23.194;2023-08-21T04:23:04;6.53;;;6.03;;
5951;SDS011;3001;42.622;23.194;2023-08-21T04:25:31;6.17;;;5.67;;
5951;SDS011;3001;42.622;23.194;2023-08-21T04:27:58;8.17;;;5.17;;
5951;SDS011;3001;42.622;23.194;2023-08-21T04:30:26;8.70;;;5.53;;
5951;SDS011;3001;42.622;23.194;2023-08-21T04:32:52;5.77;;;5.33;;
5951;SDS011;3001;42.622;23.194;2023-08-21T04:35:19;5.53;;;5.23;;
5951;SDS011;3001;42.622;23.194;2023-08-21T04:37:46;5.50;;;5.20;;
5951;SDS011;3001;42.622;23.194;2023-08-21T04:40:14;5.77;;;5.37;;
5951;SDS011;3001;42.622;23.194;2023-08-21T04:42:42;5.27;;;4.87;;
5951;SDS011;3001;42.622;23.194;2023-08-21T04:45:09;6.33;;;5.83;;
5951;SDS011;3001;42.622;23.194;2023-08-21T04:47:37;6.03;;;5.70;;
5951;SDS011;3001;42.622;23.194;2023-08-21T04:50:04;6.00;;;5.43;;
5951;SDS011;3001;42.622;23.194;2023-08-21T04:52:31;5.57;;;5.30;;
5951;SDS011;3001;42.622;23.194;2023-08-21T04:54:58;6.53;;;5.90;;
5951;SDS011;3001;42.622;23.194;2023-08-21T04:57:24;6.30;;;5.90;;
5951;SDS011;3001;42.622;23.194;2023-08-21T04:59:51;5.93;;;5.20;;
5951;SDS011;3001;42.622;23.194;2023-08-21T05:02:18;5.90;;;5.53;;
5951;SDS011;3001;42.622;23.194;2023-08-21T05:04:46;6.70;;;5.67;;
5951;SDS011;3001;42.622;23.194;2023-08-21T05:07:13;5.27;;;5.07;;
5951;SDS011;3001;42.622;23.194;2023-08-21T05:09:40;5.80;;;5.50;;
5951;SDS011;3001;42.622;23.194;2023-08-21T05:12:07;5.60;;;5.20;;
5951;SDS011;3001;42.622;23.194;2023-08-21T05:14:34;6.33;;;5.93;;
5951;SDS011;3001;42.622;23.194;2023-08-21T05:17:01;6.20;;;5.70;;
5951;SDS011;3001;42.622;23.194;2023-08-21T05:19:29;5.60;;;5.30;;
5951;SDS011;3001;42.622;23.194;2023-08-21T05:21:57;6.00;;;5.70;;
5951;SDS011;3001;42.622;23.194;2023-08-21T05:24:23;8.67;;;6.20;;
5951;SDS011;3001;42.622;23.194;2023-08-21T05:26:50;5.33;;;5.03;;
5951;SDS011;3001;42.622;23.194;2023-08-21T05:29:17;5.97;;;5.67;;
5951;SDS011;3001;42.622;23.194;2023-08-21T05:31:43;5.47;;;5.17;;
5951;SDS011;3001;42.622;23.194;2023-08-21T05:34:10;6.43;;;5.83;;
5951;SDS011;3001;42.622;23.194;2023-08-21T05:36:37;6.40;;;5.90;;
5951;SDS011;3001;42.622;23.194;2023-08-21T05:39:07;6.87;;;6.10;;
5951;SDS011;3001;42.622;23.194;2023-08-21T05:41:34;7.03;;;6.33;;
5951;SDS011;3001;42.622;23.194;2023-08-21T05:44:02;7.17;;;6.37;;
5951;SDS011;3001;42.622;23.194;2023-08-21T05:46:29;11.17;;;5.77;;
5951;SDS011;3001;42.622;23.194;2023-08-21T05:48:55;6.73;;;6.20;;
5951;SDS011;3001;42.622;23.194;2023-08-21T05:51:22;6.43;;;6.03;;
5951;SDS011;3001;42.622;23.194;2023-08-21T05:53:49;6.20;;;5.90;;
5951;SDS011;3001;42.622;23.194;2023-08-21T05:56:17;6.33;;;6.03;;
5951;SDS011;3001;42.622;23.194;2023-08-21T05:58:43;7.83;;;6.53;;
5951;SDS011;3001;42.622;23.194;2023-08-21T06:01:10;6.13;;;5.60;;
5951;SDS011;3001;42.622;23.194;2023-08-21T06:03:37;5.63;;;5.40;;
5951;SDS011;3001;42.622;23.194;2023-08-21T06:06:04;5.90;;;5.53;;
5951;SDS011;3001;42.622;23.194;2023-08-21T06:08:31;6.60;;;6.00;;
5951;SDS011;3001;42.622;23.194;2023-08-21T06:10:57;6.20;;;5.90;;
5951;SDS011;3001;42.622;23.194;2023-08-21T06:13:26;11.40;;;6.20;;
5951;SDS011;3001;42.622;23.194;2023-08-21T06:15:52;11.27;;;6.80;;
5951;SDS011;3001;42.622;23.194;2023-08-21T06:18:19;7.53;;;5.77;;
5951;SDS011;3001;42.622;23.194;2023-08-21T06:20:46;5.80;;;5.53;;
5951;SDS011;3001;42.622;23.194;2023-08-21T06:23:12;6.73;;;6.40;;
5951;SDS011;3001;42.622;23.194;2023-08-21T06:25:39;6.53;;;5.77;;
5951;SDS011;3001;42.622;23.194;2023-08-21T06:28:09;6.27;;;5.90;;
5951;SDS011;3001;42.622;23.194;2023-08-21T06:30:37;6.23;;;5.83;;
5951;SDS011;3001;42.622;23.194;2023-08-21T06:33:04;5.87;;;5.57;;
5951;SDS011;3001;42.622;23.194;2023-08-21T06:35:30;6.03;;;5.73;;
5951;SDS011;3001;42.622;23.194;2023-08-21T06:37:57;6.20;;;5.90;;
5951;SDS011;3001;42.622;23.194;2023-08-21T06:40:24;6.03;;;5.63;;
5951;SDS011;3001;42.622;23.194;2023-08-21T06:42:51;6.03;;;5.63;;
5951;SDS011;3001;42.622;23.194;2023-08-21T06:45:17;5.57;;;5.27;;
5951;SDS011;3001;42.622;23.194;2023-08-21T06:47:46;5.70;;;5.40;;
5951;SDS011;3001;42.622;23.194;2023-08-21T06:50:12;5.90;;;5.60;;
5951;SDS011;3001;42.622;23.194;2023-08-21T06:52:39;5.43;;;5.13;;
5951;SDS011;3001;42.622;23.194;2023-08-21T06:55:06;5.37;;;5.07;;
5951;SDS011;3001;42.622;23.194;2023-08-21T06:57:33;5.37;;;5.17;;
5951;SDS011;3001;42.622;23.194;2023-08-21T07:00:00;5.63;;;5.23;;
5951;SDS011;3001;42.622;23.194;2023-08-21T07:02:27;6.23;;;5.67;;
5951;SDS011;3001;42.622;23.194;2023-08-21T07:04:55;5.60;;;5.13;;
5951;SDS011;3001;42.622;23.194;2023-08-21T07:07:21;6.73;;;6.30;;
5951;SDS011;3001;42.622;23.194;2023-08-21T07:09:49;5.87;;;5.17;;
5951;SDS011;3001;42.622;23.194;2023-08-21T07:12:16;6.30;;;5.77;;
5951;SDS011;3001;42.622;23.194;2023-08-21T07:14:43;6.07;;;5.67;;
5951;SDS011;3001;42.622;23.194;2023-08-21T07:17:09;6.78;;;6.30;;
5951;SDS011;3001;42.622;23.194;2023-08-21T07:19:36;6.37;;;6.07;;
5951;SDS011;3001;42.622;23.194;2023-08-21T07:22:04;5.97;;;5.50;;
5951;SDS011;3001;42.622;23.194;2023-08-21T07:24:31;7.13;;;6.47;;
5951;SDS011;3001;42.622;23.194;2023-08-21T07:26:57;6.67;;;6.17;;
5951;SDS011;3001;42.622;23.194;2023-08-21T07:29:24;9.23;;;6.20;;
5951;SDS011;3001;42.622;23.194;2023-08-21T07:31:51;5.93;;;5.53;;
5951;SDS011;3001;42.622;23.194;2023-08-21T07:34:17;7.28;;;6.57;;
5951;SDS011;3001;42.622;23.194;2023-08-21T07:36:44;6.72;;;6.38;;
5951;SDS011;3001;42.622;23.194;2023-08-21T07:39:12;7.65;;;7.18;;
5951;SDS011;3001;42.622;23.194;2023-08-21T07:41:39;6.60;;;6.10;;
5951;SDS011;3001;42.622;23.194;2023-08-21T07:44:05;6.78;;;6.28;;
5951;SDS011;3001;42.622;23.194;2023-08-21T07:46:32;7.55;;;6.95;;
5951;SDS011;3001;42.622;23.194;2023-08-21T07:48:58;8.30;;;6.55;;
5951;SDS011;3001;42.622;23.194;2023-08-21T07:51:25;6.95;;;6.47;;
5951;SDS011;3001;42.622;23.194;2023-08-21T07:53:52;6.75;;;6.30;;
5951;SDS011;3001;42.622;23.194;2023-08-21T07:56:20;6.75;;;6.18;;
5951;SDS011;3001;42.622;23.194;2023-08-21T07:58:47;7.90;;;7.10;;
5951;SDS011;3001;42.622;23.194;2023-08-21T08:01:14;7.25;;;6.85;;
5951;SDS011;3001;42.622;23.194;2023-08-21T08:03:40;6.30;;;6.00;;
5951;SDS011;3001;42.622;23.194;2023-08-21T08:06:07;7.53;;;7.00;;
5951;SDS011;3001;42.622;23.194;2023-08-21T08:08:34;7.30;;;6.75;;
5951;SDS011;3001;42.622;23.194;2023-08-21T08:11:01;7.25;;;6.78;;
5951;SDS011;3001;42.622;23.194;2023-08-21T08:13:31;6.38;;;5.97;;
5951;SDS011;3001;42.622;23.194;2023-08-21T08:15:57;8.25;;;6.25;;
5951;SDS011;3001;42.622;23.194;2023-08-21T08:18:24;7.18;;;6.88;;
5951;SDS011;3001;42.622;23.194;2023-08-21T08:20:51;6.07;;;5.75;;
5951;SDS011;3001;42.622;23.194;2023-08-21T08:23:18;6.40;;;6.10;;
5951;SDS011;3001;42.622;23.194;2023-08-21T08:25:45;11.13;;;10.00;;
5951;SDS011;3001;42.622;23.194;2023-08-21T08:28:13;7.32;;;6.82;;
5951;SDS011;3001;42.622;23.194;2023-08-21T08:30:41;6.03;;;5.68;;
5951;SDS011;3001;42.622;23.194;2023-08-21T08:33:08;8.98;;;8.40;;
5951;SDS011;3001;42.622;23.194;2023-08-21T08:35:34;5.80;;;5.45;;
5951;SDS011;3001;42.622;23.194;2023-08-21T08:38:01;6.05;;;5.80;;
5951;SDS011;3001;42.622;23.194;2023-08-21T08:40:28;6.95;;;6.45;;
5951;SDS011;3001;42.622;23.194;2023-08-21T08:42:55;5.80;;;5.40;;
5951;SDS011;3001;42.622;23.194;2023-08-21T08:45:23;6.13;;;5.82;;
5951;SDS011;3001;42.622;23.194;2023-08-21T08:47:57;6.22;;;5.63;;
5951;SDS011;3001;42.622;23.194;2023-08-21T08:50:25;6.13;;;5.53;;
5951;SDS011;3001;42.622;23.194;2023-08-21T08:52:54;6.32;;;5.93;;
5951;SDS011;3001;42.622;23.194;2023-08-21T08:55:22;6.43;;;5.93;;
5951;SDS011;3001;42.622;23.194;2023-08-21T08:57:50;6.55;;;5.93;;
5951;SDS011;3001;42.622;23.194;2023-08-21T09:00:17;5.63;;;5.32;;
5951;SDS011;3001;42.622;23.194;2023-08-21T09:02:45;5.75;;;5.32;;
5951;SDS011;3001;42.622;23.194;2023-08-21T09:05:13;7.00;;;5.63;;
5951;SDS011;3001;42.622;23.194;2023-08-21T09:07:41;7.10;;;5.75;;
5951;SDS011;3001;42.622;23.194;2023-08-21T09:10:12;6.40;;;5.80;;
5951;SDS011;3001;42.622;23.194;2023-08-21T09:12:40;5.57;;;4.97;;
5951;SDS011;3001;42.622;23.194;2023-08-21T09:15:07;5.78;;;5.40;;
5951;SDS011;3001;42.622;23.194;2023-08-21T09:17:34;5.88;;;5.57;;
5951;SDS011;3001;42.622;23.194;2023-08-21T09:20:04;7.55;;;5.60;;
5951;SDS011;3001;42.622;23.194;2023-08-21T09:22:33;6.10;;;5.57;;
5951;SDS011;3001;42.622;23.194;2023-08-21T09:25:00;5.47;;;5.22;;
5951;SDS011;3001;42.622;23.194;2023-08-21T09:27:32;5.95;;;5.53;;
5951;SDS011;3001;42.622;23.194;2023-08-21T09:30:00;5.50;;;5.20;;
5951;SDS011;3001;42.622;23.194;2023-08-21T09:32:27;6.70;;;5.60;;
5951;SDS011;3001;42.622;23.194;2023-08-21T09:34:54;6.80;;;6.25;;
5951;SDS011;3001;42.622;23.194;2023-08-21T09:37:20;6.28;;;5.78;;
5951;SDS011;3001;42.622;23.194;2023-08-21T09:39:56;11.05;;;6.55;;
5951;SDS011;3001;42.622;23.194;2023-08-21T09:42:28;6.30;;;5.90;;
5951;SDS011;3001;42.622;23.194;2023-08-21T09:44:55;5.82;;;5.53;;
5951;SDS011;3001;42.622;23.194;2023-08-21T09:47:22;5.90;;;5.60;;
5951;SDS011;3001;42.622;23.194;2023-08-21T09:49:52;6.55;;;5.85;;
5951;SDS011;3001;42.622;23.194;2023-08-21T09:52:19;6.22;;;5.70;;
5951;SDS011;3001;42.622;23.194;2023-08-21T09:54:46;12.88;;;8.20;;
5951;SDS011;3001;42.622;23.194;2023-08-21T09:57:16;8.80;;;8.10;;
5951;SDS011;3001;42.622;23.194;2023-08-21T09:59:42;6.15;;;5.80;;
5951;SDS011;3001;42.622;23.194;2023-08-21T10:02:09;7.15;;;5.50;;
5951;SDS011;3001;42.622;23.194;2023-08-21T10:04:37;6.25;;;5.88;;
5951;SDS011;3001;42.622;23.194;2023-08-21T10:07:07;6.38;;;5.80;;
5951;SDS011;3001;42.622;23.194;2023-08-21T10:09:36;5.68;;;5.38;;
5951;SDS011;3001;42.622;23.194;2023-08-21T10:12:04;5.93;;;5.53;;
5951;SDS011;3001;42.622;23.194;2023-08-21T10:14:33;5.57;;;5.38;;
5951;SDS011;3001;42.622;23.194;2023-08-21T10:17:01;5.82;;;5.53;;
5951;SDS011;3001;42.622;23.194;2023-08-21T10:19:30;9.23;;;5.60;;
5951;SDS011;3001;42.622;23.194;2023-08-21T10:21:57;5.47;;;5.05;;
5951;SDS011;3001;42.622;23.194;2023-08-21T10:24:28;5.63;;;5.05;;
5951;SDS011;3001;42.622;23.194;2023-08-21T10:26:59;5.32;;;4.95;;
5951;SDS011;3001;42.622;23.194;2023-08-21T10:29:26;5.78;;;5.47;;
5951;SDS011;3001;42.622;23.194;2023-08-21T10:31:59;5.90;;;5.50;;
5951;SDS011;3001;42.622;23.194;2023-08-21T10:34:31;5.80;;;5.40;;
5951;SDS011;3001;42.622;23.194;2023-08-21T10:37:03;5.72;;;5.35;;
5951;SDS011;3001;42.622;23.194;2023-08-21T10:39:32;5.78;;;5.38;;
5951;SDS011;3001;42.622;23.194;2023-08-21T10:42:03;5.70;;;5.32;;
5951;SDS011;3001;42.622;23.194;2023-08-21T10:44:34;5.93;;;5.45;;
5951;SDS011;3001;42.622;23.194;2023-08-21T10:47:15;5.70;;;5.40;;
5951;SDS011;3001;42.622;23.194;2023-08-21T10:49:43;5.05;;;4.72;;
5951;SDS011;3001;42.622;23.194;2023-08-21T10:52:11;6.60;;;5.38;;
5951;SDS011;3001;42.622;23.194;2023-08-21T10:54:45;6.05;;;5.75;;
5951;SDS011;3001;42.622;23.194;2023-08-21T10:57:13;8.20;;;5.75;;
5951;SDS011;3001;42.622;23.194;2023-08-21T10:59:48;6.03;;;4.90;;
5951;SDS011;3001;42.622;23.194;2023-08-21T11:02:17;5.38;;;4.97;;
5951;SDS011;3001;42.622;23.194;2023-08-21T11:04:45;5.28;;;4.72;;
5951;SDS011;3001;42.622;23.194;2023-08-21T11:07:12;5.95;;;5.65;;
5951;SDS011;3001;42.622;23.194;2023-08-21T11:09:39;5.72;;;5.30;;
5951;SDS011;3001;42.622;23.194;2023-08-21T11:12:07;6.10;;;5.45;;
5951;SDS011;3001;42.622;23.194;2023-08-21T11:14:35;5.47;;;5.18;;
5951;SDS011;3001;42.622;23.194;2023-08-21T11:17:02;5.00;;;4.57;;
5951;SDS011;3001;42.622;23.194;2023-08-21T11:19:31;5.03;;;4.72;;
5951;SDS011;3001;42.622;23.194;2023-08-21T11:21:58;5.38;;;4.85;;
5951;SDS011;3001;42.622;23.194;2023-08-21T11:24:39;6.00;;;4.53;;
5951;SDS011;3001;42.622;23.194;2023-08-21T11:27:07;5.15;;;4.85;;
5951;SDS011;3001;42.622;23.194;2023-08-21T11:29:36;5.35;;;5.05;;
5951;SDS011;3001;42.622;23.194;2023-08-21T11:32:05;4.82;;;4.63;;
5951;SDS011;3001;42.622;23.194;2023-08-21T11:34:35;5.22;;;4.28;;
5951;SDS011;3001;42.622;23.194;2023-08-21T11:37:03;5.00;;;4.63;;
5951;SDS011;3001;42.622;23.194;2023-08-21T11:39:43;5.13;;;4.70;;
5951;SDS011;3001;42.622;23.194;2023-08-21T11:42:11;5.68;;;5.28;;
5951;SDS011;3001;42.622;23.194;2023-08-21T11:44:42;4.93;;;4.35;;
5951;SDS011;3001;42.622;23.194;2023-08-21T11:47:11;5.53;;;4.97;;
5951;SDS011;3001;42.622;23.194;2023-08-21T11:49:40;4.95;;;4.75;;
5951;SDS011;3001;42.622;23.194;2023-08-21T11:52:07;6.38;;;4.70;;
5951;SDS011;3001;42.622;23.194;2023-08-21T11:54:34;4.32;;;4.05;;
5951;SDS011;3001;42.622;23.194;2023-08-21T11:57:05;9.13;;;4.95;;
5951;SDS011;3001;42.622;23.194;2023-08-21T11:59:33;5.05;;;4.65;;
5951;SDS011;3001;42.622;23.194;2023-08-21T12:02:00;5.70;;;5.18;;
5951;SDS011;3001;42.622;23.194;2023-08-21T12:04:27;5.43;;;4.97;;
5951;SDS011;3001;42.622;23.194;2023-08-21T12:06:55;4.47;;;4.28;;
5951;SDS011;3001;42.622;23.194;2023-08-21T12:09:21;5.32;;;4.82;;
5951;SDS011;3001;42.622;23.194;2023-08-21T12:11:48;6.60;;;5.22;;
5951;SDS011;3001;42.622;23.194;2023-08-21T12:14:15;5.38;;;4.97;;
5951;SDS011;3001;42.622;23.194;2023-08-21T12:16:42;4.93;;;4.63;;
5951;SDS011;3001;42.622;23.194;2023-08-21T12:19:09;6.28;;;3.95;;
5951;SDS011;3001;42.622;23.194;2023-08-21T12:21:37;4.88;;;4.47;;
5951;SDS011;3001;42.622;23.194;2023-08-21T12:24:05;5.20;;;4.65;;
5951;SDS011;3001;42.622;23.194;2023-08-21T12:26:32;7.38;;;4.80;;
5951;SDS011;3001;42.622;23.194;2023-08-21T12:28:59;5.53;;;5.13;;
5951;SDS011;3001;42.622;23.194;2023-08-21T12:31:27;7.53;;;5.25;;
5951;SDS011;3001;42.622;23.194;2023-08-21T12:33:54;4.93;;;4.63;;
5951;SDS011;3001;42.622;23.194;2023-08-21T12:36:20;4.90;;;4.60;;
5951;SDS011;3001;42.622;23.194;2023-08-21T12:38:47;5.25;;;4.85;;
5951;SDS011;3001;42.622;23.194;2023-08-21T12:41:15;5.82;;;5.30;;
5951;SDS011;3001;42.622;23.194;2023-08-21T12:43:42;6.13;;;5.13;;
5951;SDS011;3001;42.622;23.194;2023-08-21T12:46:09;5.85;;;5.28;;
5951;SDS011;3001;42.622;23.194;2023-08-21T12:48:35;4.80;;;4.22;;
5951;SDS011;3001;42.622;23.194;2023-08-21T12:51:02;10.50;;;5.63;;
5951;SDS011;3001;42.622;23.194;2023-08-21T12:53:29;5.70;;;5.20;;
5951;SDS011;3001;42.622;23.194;2023-08-21T12:55:55;5.03;;;4.72;;
5951;SDS011;3001;42.622;23.194;2023-08-21T12:58:23;5.15;;;4.95;;
5951;SDS011;3001;42.622;23.194;2023-08-21T13:00:50;4.55;;;4.25;;
5951;SDS011;3001;42.622;23.194;2023-08-21T13:03:17;4.68;;;4.47;;
5951;SDS011;3001;42.622;23.194;2023-08-21T13:05:44;4.90;;;4.60;;
5951;SDS011;3001;42.622;23.194;2023-08-21T13:08:11;5.07;;;4.68;;
5951;SDS011;3001;42.622;23.194;2023-08-21T13:10:39;4.97;;;4.78;;
5951;SDS011;3001;42.622;23.194;2023-08-21T13:13:06;5.15;;;4.75;;
5951;SDS011;3001;42.622;23.194;2023-08-21T13:15:34;4.78;;;4.40;;
5951;SDS011;3001;42.622;23.194;2023-08-21T13:18:00;5.18;;;4.78;;
5951;SDS011;3001;42.622;23.194;2023-08-21T13:20:27;5.45;;;4.75;;
5951;SDS011;3001;42.622;23.194;2023-08-21T13:22:54;8.23;;;4.85;;
5951;SDS011;3001;42.622;23.194;2023-08-21T13:25:21;5.20;;;4.75;;
5951;SDS011;3001;42.622;23.194;2023-08-21T13:27:49;5.07;;;4.80;;
5951;SDS011;3001;42.622;23.194;2023-08-21T13:30:17;5.30;;;4.82;;
5951;SDS011;3001;42.622;23.194;2023-08-21T13:32:45;5.75;;;5.15;;
5951;SDS011;3001;42.622;23.194;2023-08-21T13:35:11;4.60;;;4.28;;
5951;SDS011;3001;42.622;23.194;2023-08-21T13:37:39;4.57;;;4.38;;
5951;SDS011;3001;42.622;23.194;2023-08-21T13:40:06;6.00;;;5.15;;
5951;SDS011;3001;42.622;23.194;2023-08-21T13:42:35;4.85;;;4.50;;
5951;SDS011;3001;42.622;23.194;2023-08-21T13:45:06;5.95;;;4.93;;
5951;SDS011;3001;42.622;23.194;2023-08-21T13:47:34;4.65;;;4.45;;
5951;SDS011;3001;42.622;23.194;2023-08-21T13:50:03;5.00;;;4.70;;
5951;SDS011;3001;42.622;23.194;2023-08-21T13:52:31;5.32;;;4.95;;
5951;SDS011;3001;42.622;23.194;2023-08-21T13:54:59;4.78;;;4.47;;
5951;SDS011;3001;42.622;23.194;2023-08-21T13:57:25;5.47;;;5.07;;
5951;SDS011;3001;42.622;23.194;2023-08-21T13:59:52;4.93;;;4.53;;
5951;SDS011;3001;42.622;23.194;2023-08-21T14:02:19;4.93;;;4.60;;
5951;SDS011;3001;42.622;23.194;2023-08-21T14:04:48;5.28;;;4.90;;
5951;SDS011;3001;42.622;23.194;2023-08-21T14:07:16;4.75;;;4.45;;
5951;SDS011;3001;42.622;23.194;2023-08-21T14:09:43;5.18;;;4.80;;
5951;SDS011;3001;42.622;23.194;2023-08-21T14:12:09;4.57;;;4.28;;
5951;SDS011;3001;42.622;23.194;2023-08-21T14:14:36;4.72;;;4.53;;
5951;SDS011;3001;42.622;23.194;2023-08-21T14:17:03;4.90;;;4.70;;
5951;SDS011;3001;42.622;23.194;2023-08-21T14:19:30;5.15;;;4.95;;
5951;SDS011;3001;42.622;23.194;2023-08-21T14:21:57;4.78;;;4.43;;
5951;SDS011;3001;42.622;23.194;2023-08-21T14:24:26;5.65;;;4.85;;
5951;SDS011;3001;42.622;23.194;2023-08-21T14:26:53;5.32;;;4.82;;
5951;SDS011;3001;42.622;23.194;2023-08-21T14:29:19;4.72;;;4.53;;
5951;SDS011;3001;42.622;23.194;2023-08-21T14:31:46;5.20;;;4.95;;
5951;SDS011;3001;42.622;23.194;2023-08-21T14:34:13;5.13;;;4.55;;
5951;SDS011;3001;42.622;23.194;2023-08-21T14:36:40;4.88;;;4.57;;
5951;SDS011;3001;42.622;23.194;2023-08-21T14:39:07;5.32;;;4.95;;
5951;SDS011;3001;42.622;23.194;2023-08-21T14:41:37;4.85;;;4.55;;
5951;SDS011;3001;42.622;23.194;2023-08-21T14:44:04;6.03;;;5.40;;
5951;SDS011;3001;42.622;23.194;2023-08-21T14:46:31;5.20;;;4.90;;
5951;SDS011;3001;42.622;23.194;2023-08-21T14:48:58;5.13;;;4.57;;
5951;SDS011;3001;42.622;23.194;2023-08-21T14:51:25;4.97;;;4.57;;
5951;SDS011;3001;42.622;23.194;2023-08-21T14:53:51;5.40;;;5.00;;
5951;SDS011;3001;42.622;23.194;2023-08-21T14:56:18;8.82;;;5.55;;
5951;SDS011;3001;42.622;23.194;2023-08-21T14:58:46;5.05;;;4.45;;
5951;SDS011;3001;42.622;23.194;2023-08-21T15:01:13;4.97;;;4.60;;
5951;SDS011;3001;42.622;23.194;2023-08-21T15:03:41;5.18;;;4.60;;